Time;durP1;ratioP1;P1;durP2;ratioP2;P2;SDS_P1;SDS_P2;PMS_P1;PMS_P2;Temp;Humidity;BMP_temperature;BMP_pressure;BME280_temperature;BME280_humidity;BME280_pressure;Samples;Min_cycle;Max_cycle;Signal;HPM_P1;HPM_P2
2022/06/20 00:00:10;;;;;;;;;;;27.30;46.20;;;;;;1529009;75;1903;-66
2022/06/20 00:02:17;;;;;;;;;;;27.20;46.30;;;;;;1539270;75;654;-66
2022/06/20 00:04:18;;;;;;;;;;;27.20;46.30;;;;;;1525940;75;823;-66
2022/06/20 00:06:22;;;;;;;;;;;27.30;46.30;;;;;;1534013;75;633;-66
2022/06/20 00:08:23;;;;;;;;;;;27.20;46.30;;;;;;1537178;75;751;-66
2022/06/20 00:10:26;;;;;;;;;;;27.30;46.20;;;;;;1530930;75;1112;-68
2022/06/20 00:12:28;;;;;;;;;;;27.20;46.20;;;;;;1538795;75;684;-65
2022/06/20 00:14:30;;;;;;;;;;;27.20;46.20;;;;;;1528622;75;893;-67
2022/06/20 00:16:32;;;;;;;;;;;27.30;46.20;;;;;;1533678;77;656;-65
2022/06/20 00:18:34;;;;;;;;;;;27.20;46.20;;;;;;1534450;75;695;-66
2022/06/20 00:20:36;;;;;;;;;;;27.20;46.20;;;;;;1502751;77;1937;-66
2022/06/20 00:22:38;;;;;;;;;;;27.30;46.20;;;;;;1499077;77;708;-68
2022/06/20 00:24:40;;;;;;;;;;;27.20;46.20;;;;;;1494835;77;697;-66
2022/06/20 00:26:42;;;;;;;;;;;27.20;46.10;;;;;;1472087;80;1585;-65
2022/06/20 00:28:44;;;;;;;;;;;27.20;46.10;;;;;;1475334;78;688;-66
2022/06/20 00:30:47;;;;;;;;;;;27.20;46.10;;;;;;1485712;78;1153;-66
2022/06/20 00:32:48;;;;;;;;;;;27.20;46.20;;;;;;1507845;77;680;-66
2022/06/20 00:34:50;;;;;;;;;;;27.20;46.20;;;;;;1507184;77;774;-66
2022/06/20 00:36:52;;;;;;;;;;;27.20;46.10;;;;;;1502268;78;717;-66
2022/06/20 00:38:54;;;;;;;;;;;27.20;46.10;;;;;;1509554;78;703;-66
2022/06/20 00:40:58;;;;;;;;;;;27.20;46.10;;;;;;1509630;78;1941;-65
2022/06/20 00:42:59;;;;;;;;;;;27.20;46.20;;;;;;1509694;78;683;-65
2022/06/20 00:45:02;;;;;;;;;;;27.20;46.10;;;;;;1509595;77;687;-64
2022/06/20 00:47:05;;;;;;;;;;;27.20;46.10;;;;;;1511982;78;692;-65
2022/06/20 00:49:15;;;;;;;;;;;27.20;46.10;;;;;;1496302;78;1267;-68
2022/06/20 00:51:18;;;;;;;;;;;27.20;46.10;;;;;;1502574;78;1155;-66
2022/06/20 00:53:24;;;;;;;;;;;27.30;46.00;;;;;;1497205;78;1543;-65
2022/06/20 00:55:34;;;;;;;;;;;27.20;46.10;;;;;;1499127;77;681;-67
2022/06/20 00:57:37;;;;;;;;;;;27.20;46.00;;;;;;1479591;78;642;-66
2022/06/20 00:59:41;;;;;;;;;;;27.20;46.00;;;;;;1507771;77;668;-66
2022/06/20 01:02:02;;;;;;;;;;;27.20;46.00;;;;;;1508896;79;1981;-65
2022/06/20 01:04:08;;;;;;;;;;;27.20;46.00;;;;;;1524845;76;687;-56
2022/06/20 01:06:14;;;;;;;;;;;27.20;46.10;;;;;;1557642;74;1191;-58
2022/06/20 01:08:18;;;;;;;;;;;27.20;46.10;;;;;;1546839;75;735;-58
2022/06/20 01:10:20;;;;;;;;;;;27.20;46.10;;;;;;1538540;76;673;-59
2022/06/20 01:12:22;;;;;;;;;;;27.20;46.00;;;;;;1566576;74;669;-58
2022/06/20 01:14:25;;;;;;;;;;;27.20;46.00;;;;;;1577633;74;714;-58
2022/06/20 01:16:28;;;;;;;;;;;27.20;46.00;;;;;;1573869;74;1110;-55
2022/06/20 01:18:30;;;;;;;;;;;27.20;46.00;;;;;;1566924;74;682;-58
2022/06/20 01:20:33;;;;;;;;;;;27.20;46.00;;;;;;1580814;74;1945;-58
2022/06/20 01:22:43;;;;;;;;;;;27.20;46.00;;;;;;1568786;74;1525;-57
2022/06/20 01:24:46;;;;;;;;;;;27.20;46.00;;;;;;1581032;74;694;-58
2022/06/20 01:26:50;;;;;;;;;;;27.10;46.00;;;;;;1571015;74;1767;-58
2022/06/20 01:28:53;;;;;;;;;;;27.20;46.00;;;;;;1571201;74;722;-57
2022/06/20 01:30:55;;;;;;;;;;;27.20;46.00;;;;;;1569094;74;673;-58
2022/06/20 01:32:57;;;;;;;;;;;27.20;46.00;;;;;;1583301;74;692;-57
2022/06/20 01:35:00;;;;;;;;;;;27.10;46.00;;;;;;1576432;74;723;-59
2022/06/20 01:39:23;;;;;;;;;;;27.20;46.00;;;;;;1565227;74;1656;-58
2022/06/20 01:43:45;;;;;;;;;;;27.20;46.00;;;;;;1569636;74;1630;-58
2022/06/20 01:45:59;;;;;;;;;;;27.20;46.00;;;;;;1584364;74;1184;-58
2022/06/20 01:48:05;;;;;;;;;;;27.10;46.00;;;;;;1583420;74;674;-58
2022/06/20 01:50:07;;;;;;;;;;;27.20;46.00;;;;;;1581288;74;722;-58
2022/06/20 01:52:11;;;;;;;;;;;27.10;46.00;;;;;;1574835;74;729;-57
2022/06/20 01:54:13;;;;;;;;;;;27.10;46.00;;;;;;1580023;74;1773;-58
2022/06/20 01:56:15;;;;;;;;;;;27.10;46.10;;;;;;1579952;74;1174;-58
2022/06/20 01:58:19;;;;;;;;;;;27.10;46.00;;;;;;1579172;74;724;-58
2022/06/20 02:00:22;;;;;;;;;;;27.10;46.00;;;;;;1570577;74;1934;-58
2022/06/20 02:02:24;;;;;;;;;;;27.20;46.00;;;;;;1541292;75;771;-59
2022/06/20 02:04:26;;;;;;;;;;;27.20;46.00;;;;;;1538192;75;612;-57
2022/06/20 02:06:28;;;;;;;;;;;27.20;46.00;;;;;;1546477;75;1148;-58
2022/06/20 02:08:30;;;;;;;;;;;27.20;46.00;;;;;;1519477;77;743;-58
2022/06/20 02:10:34;;;;;;;;;;;27.10;46.00;;;;;;1533955;77;764;-55
2022/06/20 02:12:36;;;;;;;;;;;27.10;46.00;;;;;;1540287;76;763;-58
2022/06/20 02:14:41;;;;;;;;;;;27.20;46.00;;;;;;1548824;75;746;-57
2022/06/20 02:16:44;;;;;;;;;;;27.20;45.90;;;;;;1542652;75;1097;-58
2022/06/20 02:18:46;;;;;;;;;;;27.20;46.00;;;;;;1542625;76;1365;-57
2022/06/20 02:20:48;;;;;;;;;;;27.10;46.00;;;;;;1575705;74;1945;-58
2022/06/20 02:22:50;;;;;;;;;;;27.10;45.90;;;;;;1573954;74;741;-58
2022/06/20 02:24:53;;;;;;;;;;;27.10;46.00;;;;;;1586888;74;753;-57
2022/06/20 02:26:56;;;;;;;;;;;27.10;46.00;;;;;;1578613;74;1131;-58
2022/06/20 02:29:09;;;;;;;;;;;27.10;45.90;;;;;;1577100;74;718;-55
2022/06/20 02:31:11;;;;;;;;;;;27.20;46.00;;;;;;1577065;74;721;-57
2022/06/20 02:33:17;;;;;;;;;;;27.10;46.00;;;;;;1576310;74;1570;-58
2022/06/20 02:35:19;;;;;;;;;;;27.10;46.00;;;;;;1574768;74;805;-58
2022/06/20 02:37:23;;;;;;;;;;;27.10;46.00;;;;;;1579889;74;1128;-57
2022/06/20 02:39:25;;;;;;;;;;;27.10;45.90;;;;;;1582345;74;953;-58
2022/06/20 02:41:27;;;;;;;;;;;27.10;46.00;;;;;;1576736;74;1940;-58
2022/06/20 02:43:38;;;;;;;;;;;27.10;46.00;;;;;;1575308;74;684;-58
2022/06/20 02:45:40;;;;;;;;;;;27.10;46.00;;;;;;1574734;74;665;-58
2022/06/20 02:47:46;;;;;;;;;;;27.10;46.00;;;;;;1582444;74;1592;-58
2022/06/20 02:49:48;;;;;;;;;;;27.10;46.00;;;;;;1575547;74;754;-56
2022/06/20 02:51:51;;;;;;;;;;;27.10;46.00;;;;;;1572944;74;766;-57
2022/06/20 02:53:56;;;;;;;;;;;27.10;46.00;;;;;;1582661;74;785;-56
2022/06/20 02:55:58;;;;;;;;;;;27.10;46.00;;;;;;1539734;75;1112;-55
2022/06/20 02:58:01;;;;;;;;;;;27.10;46.00;;;;;;1542068;75;653;-58
2022/06/20 03:00:03;;;;;;;;;;;27.10;46.00;;;;;;1539509;76;710;-55
2022/06/20 03:02:09;;;;;;;;;;;27.10;45.90;;;;;;1535335;75;1937;-58
2022/06/20 03:04:11;;;;;;;;;;;27.10;46.00;;;;;;1520590;77;818;-55
2022/06/20 03:06:24;;;;;;;;;;;27.10;46.00;;;;;;1547755;75;1120;-58
2022/06/20 03:08:26;;;;;;;;;;;27.10;46.00;;;;;;1510665;76;1054;-57
2022/06/20 03:10:41;;;;;;;;;;;27.10;45.90;;;;;;1528100;77;669;-57
2022/06/20 03:12:43;;;;;;;;;;;27.10;45.90;;;;;;1557800;74;758;-58
2022/06/20 03:14:52;;;;;;;;;;;27.10;46.00;;;;;;1564349;74;1550;-58
2022/06/20 03:16:54;;;;;;;;;;;27.10;46.00;;;;;;1577587;74;1147;-57
2022/06/20 03:18:56;;;;;;;;;;;27.10;46.00;;;;;;1576200;74;764;-55
2022/06/20 03:20:58;;;;;;;;;;;27.10;46.00;;;;;;1567874;74;1936;-55
2022/06/20 03:23:02;;;;;;;;;;;27.10;46.00;;;;;;1569417;74;785;-55
2022/06/20 03:25:04;;;;;;;;;;;27.10;46.00;;;;;;1563788;74;721;-58
2022/06/20 03:27:06;;;;;;;;;;;27.10;45.90;;;;;;1562991;74;1138;-58
2022/06/20 03:29:12;;;;;;;;;;;27.10;46.00;;;;;;1567341;74;1586;-58
2022/06/20 03:31:14;;;;;;;;;;;27.10;45.90;;;;;;1565411;74;772;-56
2022/06/20 03:33:16;;;;;;;;;;;27.10;45.90;;;;;;1564011;74;925;-58
2022/06/20 03:35:18;;;;;;;;;;;27.10;45.90;;;;;;1566830;75;683;-57
2022/06/20 03:37:20;;;;;;;;;;;27.10;45.90;;;;;;1572463;74;1127;-57
2022/06/20 03:39:22;;;;;;;;;;;27.10;45.90;;;;;;1574992;74;679;-58
2022/06/20 03:41:25;;;;;;;;;;;27.10;45.90;;;;;;1567616;74;1950;-58
2022/06/20 03:43:27;;;;;;;;;;;27.10;45.90;;;;;;1569217;74;1568;-58
2022/06/20 03:45:31;;;;;;;;;;;27.10;45.90;;;;;;1566798;74;677;-55
2022/06/20 03:47:34;;;;;;;;;;;27.10;46.00;;;;;;1542270;76;1137;-58
2022/06/20 03:49:40;;;;;;;;;;;27.10;45.90;;;;;;1534355;75;702;-58
2022/06/20 03:51:44;;;;;;;;;;;27.10;46.00;;;;;;1526039;75;715;-55
2022/06/20 03:53:48;;;;;;;;;;;27.10;45.90;;;;;;1522356;77;693;-58
2022/06/20 03:56:11;;;;;;;;;;;27.10;45.90;;;;;;1541866;75;1766;-58
2022/06/20 03:58:20;;;;;;;;;;;27.10;45.80;;;;;;1535732;75;1739;-58
2022/06/20 04:00:36;;;;;;;;;;;27.10;45.90;;;;;;1539405;75;757;-58
2022/06/20 04:02:40;;;;;;;;;;;27.10;45.90;;;;;;1584914;74;1916;-56
2022/06/20 04:05:00;;;;;;;;;;;27.10;45.90;;;;;;1565826;74;709;-55
2022/06/20 04:07:03;;;;;;;;;;;27.10;45.90;;;;;;1577079;74;1190;-57
2022/06/20 04:11:27;;;;;;;;;;;27.10;45.80;;;;;;1566026;74;1616;-57
2022/06/20 04:13:31;;;;;;;;;;;27.10;45.90;;;;;;1578393;74;689;-58
2022/06/20 04:15:47;;;;;;;;;;;27.10;45.90;;;;;;1575973;74;1780;-56
2022/06/20 04:18:36;;;;;;;;;;;27.10;45.90;;;;;;1576373;74;683;-58
2022/06/20 04:19:59;;;;;;;;;;;27.10;45.80;;;;;;1560855;74;1259;-57
2022/06/20 04:22:02;;;;;;;;;;;27.10;45.80;;;;;;1587021;74;1928;-56
2022/06/20 04:24:15;;;;;;;;;;;27.10;45.80;;;;;;1584382;74;670;-58
2022/06/20 04:26:18;;;;;;;;;;;27.10;45.80;;;;;;1587488;74;1597;-57
2022/06/20 04:28:28;;;;;;;;;;;27.10;45.80;;;;;;1577263;74;676;-57
2022/06/20 04:30:31;;;;;;;;;;;27.10;45.80;;;;;;1581049;74;683;-54
2022/06/20 04:32:37;;;;;;;;;;;27.10;45.90;;;;;;1568389;74;1784;-57
2022/06/20 04:34:40;;;;;;;;;;;27.10;45.80;;;;;;1559045;74;672;-57
2022/06/20 04:36:44;;;;;;;;;;;27.10;45.80;;;;;;1563702;74;1135;-56
2022/06/20 04:38:47;;;;;;;;;;;27.10;45.80;;;;;;1562073;74;1577;-57
2022/06/20 04:40:58;;;;;;;;;;;27.10;45.80;;;;;;1562659;74;874;-54
2022/06/20 04:43:03;;;;;;;;;;;27.10;45.80;;;;;;1552480;74;1916;-57
2022/06/20 04:45:16;;;;;;;;;;;27.10;45.90;;;;;;1562367;74;735;-57
2022/06/20 04:47:31;;;;;;;;;;;27.10;45.90;;;;;;1568938;74;2101;-55
2022/06/20 04:49:34;;;;;;;;;;;27.10;45.90;;;;;;1569580;74;682;-54
2022/06/20 04:51:38;;;;;;;;;;;27.10;45.80;;;;;;1554925;74;663;-56
2022/06/20 04:53:41;;;;;;;;;;;27.20;45.90;;;;;;1562419;74;1565;-55
2022/06/20 04:55:44;;;;;;;;;;;27.20;45.90;;;;;;1570511;74;770;-57
2022/06/20 04:57:46;;;;;;;;;;;27.20;45.90;;;;;;1569842;74;1174;-54
2022/06/20 04:59:48;;;;;;;;;;;27.10;45.90;;;;;;1564037;74;763;-56
2022/06/20 05:01:50;;;;;;;;;;;27.10;45.90;;;;;;1574692;74;1934;-56
2022/06/20 05:03:57;;;;;;;;;;;27.20;45.90;;;;;;1582242;74;680;-56
2022/06/20 05:05:59;;;;;;;;;;;27.10;45.80;;;;;;1576849;74;1200;-59
2022/06/20 05:08:01;;;;;;;;;;;27.20;45.80;;;;;;1582583;74;1531;-56
2022/06/20 05:10:05;;;;;;;;;;;27.20;45.70;;;;;;1581032;74;745;-58
2022/06/20 05:12:17;;;;;;;;;;;27.20;45.70;;;;;;1582056;74;778;-59
2022/06/20 05:14:20;;;;;;;;;;;27.20;45.80;;;;;;1573150;74;681;-55
2022/06/20 05:16:23;;;;;;;;;;;27.30;45.80;;;;;;1534846;75;1153;-58
2022/06/20 05:18:41;;;;;;;;;;;27.30;45.60;;;;;;1513268;77;683;-59
2022/06/20 05:20:43;;;;;;;;;;;27.30;45.60;;;;;;1503929;77;1089;-56
2022/06/20 05:22:47;;;;;;;;;;;27.30;45.50;;;;;;1514538;77;1945;-59
2022/06/20 05:24:49;;;;;;;;;;;27.30;45.50;;;;;;1527677;77;1888;-59
2022/06/20 05:26:51;;;;;;;;;;;27.30;45.50;;;;;;1519997;77;1114;-57
2022/06/20 05:28:53;;;;;;;;;;;27.30;45.50;;;;;;1531249;75;661;-57
2022/06/20 05:30:55;;;;;;;;;;;27.30;45.50;;;;;;1553322;75;656;-59
2022/06/20 05:32:59;;;;;;;;;;;27.40;45.30;;;;;;1541879;75;680;-58
2022/06/20 05:35:06;;;;;;;;;;;27.30;45.30;;;;;;1499107;77;1557;-55
2022/06/20 05:37:14;;;;;;;;;;;27.30;45.30;;;;;;1520916;77;1142;-59
2022/06/20 05:39:24;;;;;;;;;;;27.40;45.20;;;;;;1570257;74;812;-59
2022/06/20 05:41:26;;;;;;;;;;;27.60;45.10;;;;;;1571325;74;710;-57
2022/06/20 05:43:29;;;;;;;;;;;27.60;45.00;;;;;;1560769;74;1890;-59
2022/06/20 05:45:31;;;;;;;;;;;27.50;44.90;;;;;;1563465;74;713;-60
2022/06/20 05:47:33;;;;;;;;;;;27.50;44.90;;;;;;1559564;74;1131;-57
2022/06/20 05:49:43;;;;;;;;;;;27.70;44.80;;;;;;1553073;74;1538;-58
2022/06/20 05:51:45;;;;;;;;;;;27.70;44.60;;;;;;1562291;74;706;-57
2022/06/20 05:53:47;;;;;;;;;;;27.70;44.40;;;;;;1565457;74;940;-58
2022/06/20 05:55:49;;;;;;;;;;;27.70;44.20;;;;;;1574024;74;1158;-57
2022/06/20 05:57:52;;;;;;;;;;;27.70;44.20;;;;;;1555069;74;776;-57
2022/06/20 05:59:58;;;;;;;;;;;27.60;44.20;;;;;;1562281;74;822;-59
2022/06/20 06:02:02;;;;;;;;;;;27.60;44.30;;;;;;1561928;74;2026;-59
2022/06/20 06:04:05;;;;;;;;;;;27.60;44.30;;;;;;1564905;74;1646;-59
2022/06/20 06:06:10;;;;;;;;;;;27.70;44.30;;;;;;1562973;74;1179;-57
2022/06/20 06:08:20;;;;;;;;;;;27.60;44.30;;;;;;1566305;74;865;-57
2022/06/20 06:10:26;;;;;;;;;;;27.60;44.20;;;;;;1561460;74;647;-57
2022/06/20 06:12:33;;;;;;;;;;;27.70;44.20;;;;;;1566378;74;690;-57
2022/06/20 06:14:39;;;;;;;;;;;27.70;44.20;;;;;;1560982;74;1814;-58
2022/06/20 06:16:48;;;;;;;;;;;27.70;44.10;;;;;;1552693;75;1142;-56
2022/06/20 06:18:52;;;;;;;;;;;27.70;44.00;;;;;;1558695;74;1611;-57
2022/06/20 06:20:54;;;;;;;;;;;27.70;43.90;;;;;;1561320;74;720;-59
2022/06/20 06:22:59;;;;;;;;;;;27.80;43.70;;;;;;1550414;74;1932;-59
2022/06/20 06:25:02;;;;;;;;;;;27.90;43.60;;;;;;1561612;74;765;-56
2022/06/20 06:27:04;;;;;;;;;;;27.90;43.40;;;;;;1559929;74;1076;-56
2022/06/20 06:29:06;;;;;;;;;;;27.90;43.20;;;;;;1561718;74;704;-59
2022/06/20 06:31:12;;;;;;;;;;;28.00;43.70;;;;;;1560898;74;734;-57
2022/06/20 06:33:20;;;;;;;;;;;28.00;43.80;;;;;;1563715;74;1002;-59
2022/06/20 06:35:24;;;;;;;;;;;28.00;43.60;;;;;;1560248;74;1723;-56
2022/06/20 06:37:28;;;;;;;;;;;28.00;43.50;;;;;;1562393;74;1139;-55
2022/06/20 06:39:43;;;;;;;;;;;28.00;43.40;;;;;;1559916;74;687;-57
2022/06/20 06:41:46;;;;;;;;;;;28.00;43.40;;;;;;1562395;74;1758;-57
2022/06/20 06:43:47;;;;;;;;;;;28.10;43.20;;;;;;1561194;74;1924;-58
2022/06/20 06:45:51;;;;;;;;;;;28.10;43.10;;;;;;1552231;74;1556;-59
2022/06/20 06:47:56;;;;;;;;;;;28.10;43.00;;;;;;1537408;75;749;-57
2022/06/20 06:49:59;;;;;;;;;;;28.20;42.80;;;;;;1509788;77;656;-57
2022/06/20 06:52:02;;;;;;;;;;;28.10;42.80;;;;;;1520765;77;711;-59
2022/06/20 06:54:06;;;;;;;;;;;28.20;42.70;;;;;;1518457;77;758;-57
2022/06/20 06:56:21;;;;;;;;;;;28.20;42.70;;;;;;1520369;76;1170;-59
2022/06/20 06:58:25;;;;;;;;;;;28.20;42.70;;;;;;1538432;75;766;-57
2022/06/20 07:00:40;;;;;;;;;;;28.20;42.60;;;;;;1515444;77;1505;-60
2022/06/20 07:02:43;;;;;;;;;;;28.10;42.70;;;;;;1561007;72;221434;-65
2022/06/20 07:04:52;;;;;;;;;;;28.10;42.60;;;;;;1562213;74;714;-66
2022/06/20 07:06:59;;;;;;;;;;;28.20;42.60;;;;;;1583387;74;647;-67
2022/06/20 07:09:08;;;;;;;;;;;28.20;42.50;;;;;;1583273;74;1271;-68
2022/06/20 07:11:12;;;;;;;;;;;28.10;42.30;;;;;;1577504;74;1213;-67
2022/06/20 07:13:21;;;;;;;;;;;28.20;42.60;;;;;;1534452;75;1453;-67
2022/06/20 07:15:24;;;;;;;;;;;28.20;42.60;;;;;;1538755;75;1839;-67
2022/06/20 07:17:30;;;;;;;;;;;28.20;42.30;;;;;;1542960;75;795;-68
2022/06/20 07:19:33;;;;;;;;;;;28.20;42.30;;;;;;1536835;76;977;-68
2022/06/20 07:21:35;;;;;;;;;;;28.20;42.30;;;;;;1543411;76;1332;-68
2022/06/20 07:23:37;;;;;;;;;;;28.20;42.30;;;;;;1538458;76;1936;-68
2022/06/20 07:25:43;;;;;;;;;;;28.20;42.10;;;;;;1543299;75;644;-68
2022/06/20 07:27:48;;;;;;;;;;;28.20;42.20;;;;;;1536611;76;1476;-67
2022/06/20 07:29:51;;;;;;;;;;;28.20;41.80;;;;;;1548098;75;1088;-69
2022/06/20 07:31:54;;;;;;;;;;;28.20;41.80;;;;;;1531265;76;1656;-68
2022/06/20 07:33:57;;;;;;;;;;;28.20;42.10;;;;;;1539007;76;720;-68
2022/06/20 07:36:00;;;;;;;;;;;28.20;41.50;;;;;;1536044;76;653;-65
2022/06/20 07:38:03;;;;;;;;;;;28.10;41.50;;;;;;1534132;76;770;-67
2022/06/20 07:40:12;;;;;;;;;;;28.10;41.60;;;;;;1506696;77;770;-68
2022/06/20 07:42:15;;;;;;;;;;;28.20;41.70;;;;;;1537348;76;1946;-68
2022/06/20 07:44:22;;;;;;;;;;;28.10;41.30;;;;;;1537703;75;633;-66
2022/06/20 07:46:25;;;;;;;;;;;28.20;41.30;;;;;;1539819;75;630;-68
2022/06/20 07:48:37;;;;;;;;;;;28.10;41.70;;;;;;1526497;75;638;-67
2022/06/20 07:50:42;;;;;;;;;;;28.10;41.70;;;;;;1539345;76;653;-67
2022/06/20 07:52:47;;;;;;;;;;;28.10;41.60;;;;;;1542738;76;1705;-68
2022/06/20 07:54:53;;;;;;;;;;;28.10;41.00;;;;;;1540384;75;638;-68
2022/06/20 07:57:00;;;;;;;;;;;28.10;40.90;;;;;;1541301;75;1691;-67
2022/06/20 07:59:12;;;;;;;;;;;28.00;41.50;;;;;;1540285;76;708;-66
2022/06/20 08:01:16;;;;;;;;;;;28.10;41.50;;;;;;1535955;75;1141;-67
2022/06/20 08:03:19;;;;;;;;;;;28.00;41.40;;;;;;1529321;76;1950;-64
2022/06/20 08:05:26;;;;;;;;;;;28.00;41.30;;;;;;1530472;75;1724;-65
2022/06/20 08:07:40;;;;;;;;;;;28.10;41.40;;;;;;1539330;75;968;-67
2022/06/20 08:09:43;;;;;;;;;;;28.10;41.30;;;;;;1537230;75;1593;-65
2022/06/20 08:11:47;;;;;;;;;;;28.00;41.30;;;;;;1536651;75;1189;-67
2022/06/20 08:13:50;;;;;;;;;;;28.10;40.90;;;;;;1538564;76;644;-67
2022/06/20 08:15:57;;;;;;;;;;;28.00;41.30;;;;;;1539537;76;660;-68
2022/06/20 08:17:59;;;;;;;;;;;28.00;41.10;;;;;;1550261;76;735;-67
2022/06/20 08:20:00;;;;;;;;;;;28.10;41.20;;;;;;1536054;76;658;-68
2022/06/20 08:22:04;;;;;;;;;;;28.10;41.20;;;;;;1541541;75;1144;-68
2022/06/20 08:24:10;;;;;;;;;;;28.00;41.10;;;;;;1542886;75;1937;-66
2022/06/20 08:26:14;;;;;;;;;;;28.00;41.00;;;;;;1538936;75;667;-68
2022/06/20 08:28:18;;;;;;;;;;;28.00;40.50;;;;;;1543899;76;676;-68
2022/06/20 08:30:21;;;;;;;;;;;28.00;41.00;;;;;;1538775;76;775;-68
2022/06/20 08:32:25;;;;;;;;;;;28.10;41.10;;;;;;1535017;76;1770;-67
2022/06/20 08:34:31;;;;;;;;;;;28.10;40.90;;;;;;1530644;76;1763;-69
2022/06/20 08:36:38;;;;;;;;;;;28.10;40.90;;;;;;1539844;76;688;-68
2022/06/20 08:38:50;;;;;;;;;;;28.00;41.00;;;;;;1537760;75;1527;-70
2022/06/20 08:41:06;;;;;;;;;;;28.00;40.70;;;;;;1536672;76;929;-69
2022/06/20 08:43:18;;;;;;;;;;;28.00;40.40;;;;;;1527243;75;1941;-70
2022/06/20 08:45:22;;;;;;;;;;;28.00;40.70;;;;;;1540290;76;1952;-70
2022/06/20 08:47:25;;;;;;;;;;;28.00;40.70;;;;;;1541474;76;703;-71
2022/06/20 08:49:32;;;;;;;;;;;28.00;40.40;;;;;;1538084;76;1752;-69
2022/06/20 08:52:07;;;;;;;;;;;28.00;40.50;;;;;;1534236;75;1147;-69
2022/06/20 08:54:16;;;;;;;;;;;28.00;40.50;;;;;;1531343;75;642;-70
2022/06/20 08:56:23;;;;;;;;;;;27.80;40.00;;;;;;1535664;76;623;-70
2022/06/20 08:58:26;;;;;;;;;;;28.00;40.70;;;;;;1537419;75;725;-69
2022/06/20 09:00:30;;;;;;;;;;;27.90;40.00;;;;;;1520637;76;1396;-71
2022/06/20 09:02:39;;;;;;;;;;;27.90;40.10;;;;;;1538066;76;2072;-70
2022/06/20 09:04:41;;;;;;;;;;;27.90;40.10;;;;;;1545856;76;1133;-69
2022/06/20 09:06:57;;;;;;;;;;;27.90;40.10;;;;;;1545820;75;1730;-68
2022/06/20 09:09:10;;;;;;;;;;;27.90;40.20;;;;;;1538492;75;707;-69
2022/06/20 09:11:30;;;;;;;;;;;27.90;40.20;;;;;;1535203;75;1169;-68
2022/06/20 09:13:33;;;;;;;;;;;28.00;41.00;;;;;;1539055;76;740;-70
2022/06/20 09:15:45;;;;;;;;;;;28.00;40.90;;;;;;1537459;76;2142;-71
2022/06/20 09:17:51;;;;;;;;;;;28.10;41.00;;;;;;1536584;75;674;-71
2022/06/20 09:20:01;;;;;;;;;;;28.10;41.10;;;;;;1541682;76;702;-73
2022/06/20 09:22:13;;;;;;;;;;;28.20;41.00;;;;;;1492390;76;1269;-73
2022/06/20 09:24:29;;;;;;;;;;;28.20;40.90;;;;;;1532892;76;1939;-69
2022/06/20 09:26:32;;;;;;;;;;;28.20;40.80;;;;;;1532920;76;1116;-67
2022/06/20 09:28:36;;;;;;;;;;;28.20;40.80;;;;;;1533001;75;1573;-68
2022/06/20 09:30:45;;;;;;;;;;;28.20;41.00;;;;;;1536902;76;1939;-71
2022/06/20 09:32:49;;;;;;;;;;;28.20;40.80;;;;;;1533528;76;1142;-68
2022/06/20 09:34:55;;;;;;;;;;;28.30;40.90;;;;;;1540202;75;1493;-69
2022/06/20 09:37:02;;;;;;;;;;;28.20;41.00;;;;;;1534835;76;1976;-71
2022/06/20 09:39:11;;;;;;;;;;;28.20;41.10;;;;;;1537832;75;820;-70
2022/06/20 09:41:14;;;;;;;;;;;28.30;41.10;;;;;;1538667;75;1594;-69
2022/06/20 09:43:30;;;;;;;;;;;28.30;41.30;;;;;;1537587;76;1948;-70
2022/06/20 09:45:50;;;;;;;;;;;28.30;41.20;;;;;;1543406;76;1704;-71
2022/06/20 09:47:53;;;;;;;;;;;28.20;41.30;;;;;;1531354;76;656;-70
2022/06/20 09:49:57;;;;;;;;;;;28.10;41.40;;;;;;1545095;75;1754;-70
2022/06/20 09:52:03;;;;;;;;;;;28.10;41.50;;;;;;1541161;76;1201;-70
2022/06/20 09:54:07;;;;;;;;;;;28.10;41.60;;;;;;1539126;75;1856;-70
2022/06/20 09:56:13;;;;;;;;;;;28.10;41.60;;;;;;1529139;76;684;-70
2022/06/20 09:58:34;;;;;;;;;;;28.00;41.60;;;;;;1519288;75;675;-70
2022/06/20 10:00:37;;;;;;;;;;;28.00;41.70;;;;;;1534189;76;660;-70
2022/06/20 10:02:53;;;;;;;;;;;28.00;41.60;;;;;;1537001;75;1539;-72
2022/06/20 10:04:57;;;;;;;;;;;28.00;41.70;;;;;;1532958;76;570;-69
2022/06/20 10:07:00;;;;;;;;;;;28.00;41.80;;;;;;1529516;75;644;-70
2022/06/20 10:09:16;;;;;;;;;;;28.00;41.70;;;;;;1533990;76;1675;-71
2022/06/20 10:11:19;;;;;;;;;;;27.90;41.10;;;;;;1527732;74;1173;-70
2022/06/20 10:13:41;;;;;;;;;;;28.00;41.70;;;;;;1542100;76;756;-70
2022/06/20 10:15:48;;;;;;;;;;;27.90;41.10;;;;;;1535205;76;734;-70
2022/06/20 10:17:51;;;;;;;;;;;28.00;41.60;;;;;;1520375;76;1504;-71
2022/06/20 10:19:58;;;;;;;;;;;27.90;41.00;;;;;;1531421;75;740;-71
2022/06/20 10:22:04;;;;;;;;;;;28.00;41.70;;;;;;1526089;76;1373;-70
2022/06/20 10:24:14;;;;;;;;;;;27.90;41.00;;;;;;1530217;76;1951;-70
2022/06/20 10:26:34;;;;;;;;;;;28.00;41.70;;;;;;1505311;76;1032;-70
2022/06/20 10:28:52;;;;;;;;;;;28.00;41.50;;;;;;1522724;76;651;-70
2022/06/20 10:31:02;;;;;;;;;;;28.00;41.60;;;;;;1532101;75;1461;-68
2022/06/20 10:33:08;;;;;;;;;;;28.00;41.60;;;;;;1542607;75;722;-70
2022/06/20 10:35:20;;;;;;;;;;;28.00;41.60;;;;;;1531073;75;964;-68
2022/06/20 10:37:29;;;;;;;;;;;28.00;41.60;;;;;;1536137;75;733;-70
2022/06/20 10:39:32;;;;;;;;;;;28.00;41.50;;;;;;1538149;75;766;-70
2022/06/20 10:41:54;;;;;;;;;;;28.00;41.50;;;;;;1536647;75;1897;-70
2022/06/20 10:44:13;;;;;;;;;;;28.00;41.50;;;;;;1533656;76;1939;-70
2022/06/20 10:46:16;;;;;;;;;;;28.00;41.50;;;;;;1549352;75;1625;-68
2022/06/20 10:48:20;;;;;;;;;;;28.00;41.50;;;;;;1543368;75;1684;-66
2022/06/20 10:50:23;;;;;;;;;;;28.00;41.60;;;;;;1541913;76;681;-69
2022/06/20 10:52:29;;;;;;;;;;;28.00;41.60;;;;;;1542908;76;1842;-71
2022/06/20 10:54:42;;;;;;;;;;;28.00;41.60;;;;;;1533078;75;1681;-68
2022/06/20 10:56:51;;;;;;;;;;;27.90;41.00;;;;;;1538411;76;2222;-68
2022/06/20 10:58:57;;;;;;;;;;;28.00;41.60;;;;;;1536966;75;1715;-68
2022/06/20 11:01:19;;;;;;;;;;;27.90;41.00;;;;;;1533416;75;1429;-68
2022/06/20 11:03:33;;;;;;;;;;;28.00;41.60;;;;;;1537827;75;1922;-69
2022/06/20 11:05:36;;;;;;;;;;;28.00;41.70;;;;;;1528615;76;1732;-70
2022/06/20 11:07:40;;;;;;;;;;;28.00;41.70;;;;;;1529130;76;710;-69
2022/06/20 11:09:43;;;;;;;;;;;28.00;41.80;;;;;;1541024;75;654;-68
2022/06/20 11:11:47;;;;;;;;;;;27.90;41.00;;;;;;1523886;76;1199;-70
2022/06/20 11:13:53;;;;;;;;;;;28.00;41.70;;;;;;1542637;76;1536;-69
2022/06/20 11:15:59;;;;;;;;;;;27.90;41.00;;;;;;1542669;75;1817;-68
2022/06/20 11:18:03;;;;;;;;;;;27.90;41.10;;;;;;1538035;76;1864;-69
2022/06/20 11:20:17;;;;;;;;;;;27.90;41.10;;;;;;1527855;75;1609;-68
2022/06/20 11:22:21;;;;;;;;;;;27.90;41.10;;;;;;1522468;76;1161;-69
2022/06/20 11:24:30;;;;;;;;;;;27.80;41.20;;;;;;1535232;75;1938;-69
2022/06/20 11:26:33;;;;;;;;;;;27.90;41.20;;;;;;1536481;76;2105;-68
2022/06/20 11:28:52;;;;;;;;;;;27.90;41.30;;;;;;1529426;76;690;-69
2022/06/20 11:30:58;;;;;;;;;;;27.80;41.20;;;;;;1533055;75;700;-69
2022/06/20 11:33:19;;;;;;;;;;;27.80;41.30;;;;;;1539840;76;1056;-69
2022/06/20 11:35:37;;;;;;;;;;;27.80;41.40;;;;;;1533786;75;664;-70
2022/06/20 11:37:50;;;;;;;;;;;27.90;41.40;;;;;;1540080;76;673;-69
2022/06/20 11:40:07;;;;;;;;;;;27.90;41.30;;;;;;1523153;76;1816;-69
2022/06/20 11:42:27;;;;;;;;;;;27.80;41.30;;;;;;1546067;76;1456;-70
2022/06/20 11:44:31;;;;;;;;;;;27.80;41.40;;;;;;1540769;75;1937;-71
2022/06/20 11:46:37;;;;;;;;;;;27.80;41.40;;;;;;1539874;76;730;-70
2022/06/20 11:48:57;;;;;;;;;;;27.90;41.40;;;;;;1540951;75;676;-69
2022/06/20 11:51:19;;;;;;;;;;;27.80;41.40;;;;;;1540203;76;682;-70
2022/06/20 11:53:41;;;;;;;;;;;27.80;41.40;;;;;;1530667;76;647;-69
2022/06/20 11:56:01;;;;;;;;;;;27.80;41.40;;;;;;1539743;75;1540;-69
2022/06/20 11:58:23;;;;;;;;;;;27.80;41.40;;;;;;1541027;75;711;-70
2022/06/20 12:00:29;;;;;;;;;;;27.90;41.40;;;;;;1539653;76;2052;-70
2022/06/20 12:02:33;;;;;;;;;;;27.90;41.20;;;;;;1542680;76;1812;-71
2022/06/20 12:04:39;;;;;;;;;;;28.00;41.80;;;;;;1534017;76;1934;-69
2022/06/20 12:06:55;;;;;;;;;;;27.90;40.90;;;;;;1536612;76;692;-69
2022/06/20 12:09:04;;;;;;;;;;;27.90;40.70;;;;;;1539833;75;1708;-68
2022/06/20 12:11:08;;;;;;;;;;;27.90;40.60;;;;;;1538172;75;1164;-69
2022/06/20 12:13:21;;;;;;;;;;;27.90;40.70;;;;;;1538011;76;1002;-69
2022/06/20 12:15:43;;;;;;;;;;;27.80;40.80;;;;;;1539561;76;1591;-67
2022/06/20 12:17:46;;;;;;;;;;;27.80;40.90;;;;;;1481228;78;1174;-69
2022/06/20 12:24:47;;;;;;;;;;;27.70;41.00;;;;;;1550881;75;1927;-69
2022/06/20 12:26:50;;;;;;;;;;;27.80;41.00;;;;;;1557191;75;733;-69
2022/06/20 12:28:52;;;;;;;;;;;27.70;41.00;;;;;;1534098;75;743;-68
2022/06/20 12:30:54;;;;;;;;;;;27.70;41.10;;;;;;1540004;75;782;-71
2022/06/20 12:32:56;;;;;;;;;;;27.70;41.10;;;;;;1546436;76;1086;-67
2022/06/20 12:34:59;;;;;;;;;;;27.70;41.10;;;;;;1539870;75;733;-69
2022/06/20 12:37:12;;;;;;;;;;;27.70;41.10;;;;;;1540090;75;1742;-69
2022/06/20 12:39:16;;;;;;;;;;;27.70;41.10;;;;;;1540528;75;1674;-69
2022/06/20 12:41:23;;;;;;;;;;;27.70;41.10;;;;;;1534872;76;1149;-71